sensor_id;sensor_type;location;lat;lon;timestamp;temperature;humidity
43949;DHT22;29429;51.074;13.764;2023-05-07T00:00:08;10.50;99.90
43949;DHT22;29429;51.074;13.764;2023-05-07T00:02:36;10.40;99.90
43949;DHT22;29429;51.074;13.764;2023-05-07T00:05:04;10.40;99.90
43949;DHT22;29429;51.074;13.764;2023-05-07T00:07:32;10.40;99.90
43949;DHT22;29429;51.074;13.764;2023-05-07T00:09:59;10.50;99.90
43949;DHT22;29429;51.074;13.764;2023-05-07T00:12:26;10.40;99.90
43949;DHT22;29429;51.074;13.764;2023-05-07T00:14:53;10.40;99.90
43949;DHT22;29429;51.074;13.764;2023-05-07T00:17:20;10.40;99.90
43949;DHT22;29429;51.074;13.764;2023-05-07T00:19:47;10.50;99.90
43949;DHT22;29429;51.074;13.764;2023-05-07T00:22:14;10.30;99.90
43949;DHT22;29429;51.074;13.764;2023-05-07T00:24:42;10.40;99.90
43949;DHT22;29429;51.074;13.764;2023-05-07T00:27:09;10.40;99.90
43949;DHT22;29429;51.074;13.764;2023-05-07T00:29:36;10.30;99.90
43949;DHT22;29429;51.074;13.764;2023-05-07T00:32:03;10.30;99.90
43949;DHT22;29429;51.074;13.764;2023-05-07T00:34:30;10.30;99.90
43949;DHT22;29429;51.074;13.764;2023-05-07T00:36:57;10.30;99.90
43949;DHT22;29429;51.074;13.764;2023-05-07T00:39:24;10.30;99.90
43949;DHT22;29429;51.074;13.764;2023-05-07T00:41:51;10.30;99.90
43949;DHT22;29429;51.074;13.764;2023-05-07T00:44:19;10.30;99.90
43949;DHT22;29429;51.074;13.764;2023-05-07T00:46:46;10.30;99.90
43949;DHT22;29429;51.074;13.764;2023-05-07T00:49:16;10.30;99.90
43949;DHT22;29429;51.074;13.764;2023-05-07T00:51:45;10.30;99.90
43949;DHT22;29429;51.074;13.764;2023-05-07T00:54:13;10.30;99.90
43949;DHT22;29429;51.074;13.764;2023-05-07T00:56:40;10.30;99.90
43949;DHT22;29429;51.074;13.764;2023-05-07T00:59:08;10.30;99.90
43949;DHT22;29429;51.074;13.764;2023-05-07T01:01:35;10.30;99.90
43949;DHT22;29429;51.074;13.764;2023-05-07T01:04:03;10.30;99.90
43949;DHT22;29429;51.074;13.764;2023-05-07T01:06:32;10.40;99.90
43949;DHT22;29429;51.074;13.764;2023-05-07T01:09:00;10.40;99.90
43949;DHT22;29429;51.074;13.764;2023-05-07T01:11:28;10.40;99.90
43949;DHT22;29429;51.074;13.764;2023-05-07T01:13:56;10.40;99.90
43949;DHT22;29429;51.074;13.764;2023-05-07T01:16:25;10.40;99.90
43949;DHT22;29429;51.074;13.764;2023-05-07T01:18:53;10.40;99.90
43949;DHT22;29429;51.074;13.764;2023-05-07T01:21:25;10.40;99.90
43949;DHT22;29429;51.074;13.764;2023-05-07T01:23:57;10.40;99.90
43949;DHT22;29429;51.074;13.764;2023-05-07T01:26:24;10.40;99.90
43949;DHT22;29429;51.074;13.764;2023-05-07T01:28:52;10.40;99.90
43949;DHT22;29429;51.074;13.764;2023-05-07T01:31:19;10.50;99.90
43949;DHT22;29429;51.074;13.764;2023-05-07T01:33:48;10.60;99.90
43949;DHT22;29429;51.074;13.764;2023-05-07T01:36:17;10.50;99.90
43949;DHT22;29429;51.074;13.764;2023-05-07T01:38:47;10.50;99.90
43949;DHT22;29429;51.074;13.764;2023-05-07T01:41:14;10.50;99.90
43949;DHT22;29429;51.074;13.764;2023-05-07T01:43:42;10.50;99.90
43949;DHT22;29429;51.074;13.764;2023-05-07T01:46:10;10.50;99.90
43949;DHT22;29429;51.074;13.764;2023-05-07T01:48:39;10.50;99.90
43949;DHT22;29429;51.074;13.764;2023-05-07T01:51:07;10.50;99.90
43949;DHT22;29429;51.074;13.764;2023-05-07T01:53:36;10.50;99.90
43949;DHT22;29429;51.074;13.764;2023-05-07T01:56:04;10.50;99.90
43949;DHT22;29429;51.074;13.764;2023-05-07T01:58:33;10.50;99.90
43949;DHT22;29429;51.074;13.764;2023-05-07T02:01:01;10.50;99.90
43949;DHT22;29429;51.074;13.764;2023-05-07T02:03:28;10.50;99.90
43949;DHT22;29429;51.074;13.764;2023-05-07T02:06:04;10.50;99.90
43949;DHT22;29429;51.074;13.764;2023-05-07T02:08:34;10.50;99.90
43949;DHT22;29429;51.074;13.764;2023-05-07T02:11:01;10.50;99.90
43949;DHT22;29429;51.074;13.764;2023-05-07T02:13:31;10.50;99.90
43949;DHT22;29429;51.074;13.764;2023-05-07T02:16:00;10.40;99.90
43949;DHT22;29429;51.074;13.764;2023-05-07T02:18:27;10.50;99.90
43949;DHT22;29429;51.074;13.764;2023-05-07T02:20:54;10.40;99.90
43949;DHT22;29429;51.074;13.764;2023-05-07T02:23:21;10.40;99.90
43949;DHT22;29429;51.074;13.764;2023-05-07T02:25:48;10.50;99.90
43949;DHT22;29429;51.074;13.764;2023-05-07T02:28:16;10.50;99.90
43949;DHT22;29429;51.074;13.764;2023-05-07T02:30:53;10.40;99.90
43949;DHT22;29429;51.074;13.764;2023-05-07T02:33:21;10.60;99.90
43949;DHT22;29429;51.074;13.764;2023-05-07T02:35:48;10.40;99.90
43949;DHT22;29429;51.074;13.764;2023-05-07T02:38:15;10.40;99.90
43949;DHT22;29429;51.074;13.764;2023-05-07T02:40:43;10.40;99.90
43949;DHT22;29429;51.074;13.764;2023-05-07T02:43:10;10.40;99.90
43949;DHT22;29429;51.074;13.764;2023-05-07T02:45:40;10.40;99.90
43949;DHT22;29429;51.074;13.764;2023-05-07T02:48:07;10.50;99.90
43949;DHT22;29429;51.074;13.764;2023-05-07T02:50:34;10.30;99.90
43949;DHT22;29429;51.074;13.764;2023-05-07T02:53:01;10.30;99.90
43949;DHT22;29429;51.074;13.764;2023-05-07T02:55:29;10.50;99.90
43949;DHT22;29429;51.074;13.764;2023-05-07T02:57:56;10.30;99.90
43949;DHT22;29429;51.074;13.764;2023-05-07T03:00:23;10.30;99.90
43949;DHT22;29429;51.074;13.764;2023-05-07T03:03:01;10.30;99.90
43949;DHT22;29429;51.074;13.764;2023-05-07T03:05:29;10.30;99.90
43949;DHT22;29429;51.074;13.764;2023-05-07T03:07:56;10.30;99.90
43949;DHT22;29429;51.074;13.764;2023-05-07T03:10:23;10.30;99.90
43949;DHT22;29429;51.074;13.764;2023-05-07T03:12:49;10.30;99.90
43949;DHT22;29429;51.074;13.764;2023-05-07T03:15:17;10.20;99.90
43949;DHT22;29429;51.074;13.764;2023-05-07T03:17:44;10.20;99.90
43949;DHT22;29429;51.074;13.764;2023-05-07T03:20:11;10.20;99.90
43949;DHT22;29429;51.074;13.764;2023-05-07T03:22:40;10.10;99.90
43949;DHT22;29429;51.074;13.764;2023-05-07T03:25:08;10.10;99.90
43949;DHT22;29429;51.074;13.764;2023-05-07T03:27:35;10.10;99.90
43949;DHT22;29429;51.074;13.764;2023-05-07T03:30:03;10.10;99.90
43949;DHT22;29429;51.074;13.764;2023-05-07T03:32:30;10.10;99.90
43949;DHT22;29429;51.074;13.764;2023-05-07T03:34:57;10.00;99.90
43949;DHT22;29429;51.074;13.764;2023-05-07T03:37:24;10.00;99.90
43949;DHT22;29429;51.074;13.764;2023-05-07T03:39:51;10.00;99.90
43949;DHT22;29429;51.074;13.764;2023-05-07T03:42:19;9.90;99.90
43949;DHT22;29429;51.074;13.764;2023-05-07T03:44:50;10.00;99.90
43949;DHT22;29429;51.074;13.764;2023-05-07T03:47:17;9.90;99.90
43949;DHT22;29429;51.074;13.764;2023-05-07T03:49:46;9.90;99.90
43949;DHT22;29429;51.074;13.764;2023-05-07T03:52:13;9.90;99.90
43949;DHT22;29429;51.074;13.764;2023-05-07T03:54:41;9.90;99.90
43949;DHT22;29429;51.074;13.764;2023-05-07T03:57:11;9.80;99.90
43949;DHT22;29429;51.074;13.764;2023-05-07T03:59:39;9.90;99.90
43949;DHT22;29429;51.074;13.764;2023-05-07T04:02:07;9.80;99.90
43949;DHT22;29429;51.074;13.764;2023-05-07T04:04:34;10.00;99.90
43949;DHT22;29429;51.074;13.764;2023-05-07T04:07:02;10.00;99.90
43949;DHT22;29429;51.074;13.764;2023-05-07T04:09:34;10.10;99.90
43949;DHT22;29429;51.074;13.764;2023-05-07T04:12:01;10.10;99.90
43949;DHT22;29429;51.074;13.764;2023-05-07T04:14:29;10.10;99.90
43949;DHT22;29429;51.074;13.764;2023-05-07T04:16:59;10.20;99.90
43949;DHT22;29429;51.074;13.764;2023-05-07T04:19:27;10.20;99.90
43949;DHT22;29429;51.074;13.764;2023-05-07T04:21:54;10.20;99.90
43949;DHT22;29429;51.074;13.764;2023-05-07T04:24:21;10.20;99.90
43949;DHT22;29429;51.074;13.764;2023-05-07T04:26:49;10.30;99.90
43949;DHT22;29429;51.074;13.764;2023-05-07T04:29:20;10.10;99.90
43949;DHT22;29429;51.074;13.764;2023-05-07T04:31:47;10.10;99.90
43949;DHT22;29429;51.074;13.764;2023-05-07T04:34:17;10.10;99.90
43949;DHT22;29429;51.074;13.764;2023-05-07T04:36:44;10.10;99.90
43949;DHT22;29429;51.074;13.764;2023-05-07T04:39:12;10.20;99.90
43949;DHT22;29429;51.074;13.764;2023-05-07T04:41:43;10.30;99.90
43949;DHT22;29429;51.074;13.764;2023-05-07T04:44:09;10.40;99.90
43949;DHT22;29429;51.074;13.764;2023-05-07T04:46:37;10.50;99.90
43949;DHT22;29429;51.074;13.764;2023-05-07T04:49:05;10.40;99.90
43949;DHT22;29429;51.074;13.764;2023-05-07T04:51:33;10.50;99.90
43949;DHT22;29429;51.074;13.764;2023-05-07T04:54:00;10.50;99.90
43949;DHT22;29429;51.074;13.764;2023-05-07T04:56:29;10.50;99.90
43949;DHT22;29429;51.074;13.764;2023-05-07T04:58:58;10.70;99.90
43949;DHT22;29429;51.074;13.764;2023-05-07T05:01:25;10.60;99.90
43949;DHT22;29429;51.074;13.764;2023-05-07T05:03:52;10.60;99.90
43949;DHT22;29429;51.074;13.764;2023-05-07T05:06:19;10.60;99.90
43949;DHT22;29429;51.074;13.764;2023-05-07T05:08:46;10.70;99.90
43949;DHT22;29429;51.074;13.764;2023-05-07T05:11:14;10.70;99.90
43949;DHT22;29429;51.074;13.764;2023-05-07T05:13:41;10.80;99.90
43949;DHT22;29429;51.074;13.764;2023-05-07T05:16:13;10.90;99.90
43949;DHT22;29429;51.074;13.764;2023-05-07T05:18:41;10.80;99.90
43949;DHT22;29429;51.074;13.764;2023-05-07T05:21:10;11.00;99.90
43949;DHT22;29429;51.074;13.764;2023-05-07T05:23:39;11.00;99.90
43949;DHT22;29429;51.074;13.764;2023-05-07T05:26:06;11.10;99.90
43949;DHT22;29429;51.074;13.764;2023-05-07T05:28:33;11.30;99.90
43949;DHT22;29429;51.074;13.764;2023-05-07T05:31:02;11.50;99.90
43949;DHT22;29429;51.074;13.764;2023-05-07T05:33:32;11.60;99.90
43949;DHT22;29429;51.074;13.764;2023-05-07T05:36:03;11.70;99.90
43949;DHT22;29429;51.074;13.764;2023-05-07T05:38:32;11.80;99.90
43949;DHT22;29429;51.074;13.764;2023-05-07T05:40:59;11.80;99.90
43949;DHT22;29429;51.074;13.764;2023-05-07T05:43:28;11.70;99.90
43949;DHT22;29429;51.074;13.764;2023-05-07T05:45:56;11.80;99.90
43949;DHT22;29429;51.074;13.764;2023-05-07T05:48:24;11.80;99.90
43949;DHT22;29429;51.074;13.764;2023-05-07T05:50:52;11.90;99.90
43949;DHT22;29429;51.074;13.764;2023-05-07T05:53:19;11.90;99.90
43949;DHT22;29429;51.074;13.764;2023-05-07T05:55:46;11.90;99.90
43949;DHT22;29429;51.074;13.764;2023-05-07T05:58:14;11.90;99.90
43949;DHT22;29429;51.074;13.764;2023-05-07T06:00:48;11.80;99.90
43949;DHT22;29429;51.074;13.764;2023-05-07T06:03:15;11.80;99.90
43949;DHT22;29429;51.074;13.764;2023-05-07T06:05:43;11.90;99.90
43949;DHT22;29429;51.074;13.764;2023-05-07T06:08:10;11.90;99.90
43949;DHT22;29429;51.074;13.764;2023-05-07T06:10:45;12.00;99.90
43949;DHT22;29429;51.074;13.764;2023-05-07T06:16:44;12.20;99.90
43949;DHT22;29429;51.074;13.764;2023-05-07T06:19:11;12.20;99.90
43949;DHT22;29429;51.074;13.764;2023-05-07T06:21:39;12.10;99.90
43949;DHT22;29429;51.074;13.764;2023-05-07T06:24:07;12.00;99.90
43949;DHT22;29429;51.074;13.764;2023-05-07T06:26:36;11.80;99.90
43949;DHT22;29429;51.074;13.764;2023-05-07T08:05:13;12.10;99.90
43949;DHT22;29429;51.074;13.764;2023-05-07T08:07:40;12.20;99.90
43949;DHT22;29429;51.074;13.764;2023-05-07T08:10:08;12.10;99.90
43949;DHT22;29429;51.074;13.764;2023-05-07T08:12:36;12.20;99.90
43949;DHT22;29429;51.074;13.764;2023-05-07T08:15:03;12.20;99.90
43949;DHT22;29429;51.074;13.764;2023-05-07T08:17:31;12.20;99.90
43949;DHT22;29429;51.074;13.764;2023-05-07T08:19:58;12.20;99.90
43949;DHT22;29429;51.074;13.764;2023-05-07T08:22:25;12.30;99.90
43949;DHT22;29429;51.074;13.764;2023-05-07T08:24:52;12.40;99.90
43949;DHT22;29429;51.074;13.764;2023-05-07T08:27:20;12.50;99.90
43949;DHT22;29429;51.074;13.764;2023-05-07T08:29:47;12.50;99.90
43949;DHT22;29429;51.074;13.764;2023-05-07T08:32:17;12.50;99.90
43949;DHT22;29429;51.074;13.764;2023-05-07T08:34:44;12.60;99.90
43949;DHT22;29429;51.074;13.764;2023-05-07T08:37:11;12.60;99.90
43949;DHT22;29429;51.074;13.764;2023-05-07T08:39:38;12.70;99.90
43949;DHT22;29429;51.074;13.764;2023-05-07T08:42:12;12.70;99.90
43949;DHT22;29429;51.074;13.764;2023-05-07T08:44:45;12.70;99.90
43949;DHT22;29429;51.074;13.764;2023-05-07T08:47:17;12.70;99.90
43949;DHT22;29429;51.074;13.764;2023-05-07T08:50:02;12.70;99.90
43949;DHT22;29429;51.074;13.764;2023-05-07T08:52:29;12.60;99.90
43949;DHT22;29429;51.074;13.764;2023-05-07T08:54:56;12.60;99.90
43949;DHT22;29429;51.074;13.764;2023-05-07T08:57:25;12.60;99.90
43949;DHT22;29429;51.074;13.764;2023-05-07T08:59:53;12.60;99.90
43949;DHT22;29429;51.074;13.764;2023-05-07T09:02:20;12.70;99.90
43949;DHT22;29429;51.074;13.764;2023-05-07T09:04:47;12.70;99.90
43949;DHT22;29429;51.074;13.764;2023-05-07T09:07:19;12.80;99.90
43949;DHT22;29429;51.074;13.764;2023-05-07T09:09:47;12.90;99.90
43949;DHT22;29429;51.074;13.764;2023-05-07T09:12:14;12.90;99.90
43949;DHT22;29429;51.074;13.764;2023-05-07T09:14:42;12.90;99.90
43949;DHT22;29429;51.074;13.764;2023-05-07T09:17:09;12.90;99.90
43949;DHT22;29429;51.074;13.764;2023-05-07T09:19:36;13.00;99.90
43949;DHT22;29429;51.074;13.764;2023-05-07T09:22:06;13.00;99.90
43949;DHT22;29429;51.074;13.764;2023-05-07T09:24:55;13.10;99.90
43949;DHT22;29429;51.074;13.764;2023-05-07T09:27:25;13.10;99.90
43949;DHT22;29429;51.074;13.764;2023-05-07T09:29:54;13.30;99.90
43949;DHT22;29429;51.074;13.764;2023-05-07T09:32:21;13.50;99.90
43949;DHT22;29429;51.074;13.764;2023-05-07T09:34:49;13.50;99.90
43949;DHT22;29429;51.074;13.764;2023-05-07T09:37:18;13.50;99.90
43949;DHT22;29429;51.074;13.764;2023-05-07T09:39:48;13.50;99.90
43949;DHT22;29429;51.074;13.764;2023-05-07T09:42:24;13.60;99.90
43949;DHT22;29429;51.074;13.764;2023-05-07T09:44:56;13.50;99.90
43949;DHT22;29429;51.074;13.764;2023-05-07T09:47:32;13.60;99.90
43949;DHT22;29429;51.074;13.764;2023-05-07T09:50:05;13.80;99.90
43949;DHT22;29429;51.074;13.764;2023-05-07T15:48:20;13.90;99.90
43949;DHT22;29429;51.074;13.764;2023-05-07T18:18:59;15.30;99.90
43949;DHT22;29429;51.074;13.764;2023-05-07T18:21:28;11.10;99.90
43949;DHT22;29429;51.074;13.764;2023-05-07T18:23:55;10.90;99.90
43949;DHT22;29429;51.074;13.764;2023-05-07T18:26:22;10.80;99.90
43949;DHT22;29429;51.074;13.764;2023-05-07T18:28:49;10.80;99.90
43949;DHT22;29429;51.074;13.764;2023-05-07T18:31:16;10.70;99.90
43949;DHT22;29429;51.074;13.764;2023-05-07T18:33:44;10.60;99.90
43949;DHT22;29429;51.074;13.764;2023-05-07T18:36:11;10.60;99.90
43949;DHT22;29429;51.074;13.764;2023-05-07T18:38:38;10.50;99.90
43949;DHT22;29429;51.074;13.764;2023-05-07T18:41:05;10.40;99.90
43949;DHT22;29429;51.074;13.764;2023-05-07T18:43:32;10.40;99.90
43949;DHT22;29429;51.074;13.764;2023-05-07T18:46:00;10.30;99.90
43949;DHT22;29429;51.074;13.764;2023-05-07T18:48:27;10.30;99.90
43949;DHT22;29429;51.074;13.764;2023-05-07T18:50:55;10.20;99.90
43949;DHT22;29429;51.074;13.764;2023-05-07T18:53:26;10.10;99.90
43949;DHT22;29429;51.074;13.764;2023-05-07T18:55:54;10.10;99.90
43949;DHT22;29429;51.074;13.764;2023-05-07T18:58:22;10.00;99.90
43949;DHT22;29429;51.074;13.764;2023-05-07T19:00:50;10.00;99.90
43949;DHT22;29429;51.074;13.764;2023-05-07T19:03:17;10.00;99.90
43949;DHT22;29429;51.074;13.764;2023-05-07T19:05:45;9.90;99.90
43949;DHT22;29429;51.074;13.764;2023-05-07T19:08:12;9.90;99.90
43949;DHT22;29429;51.074;13.764;2023-05-07T19:10:41;9.90;99.90
43949;DHT22;29429;51.074;13.764;2023-05-07T19:13:08;9.80;99.90
43949;DHT22;29429;51.074;13.764;2023-05-07T19:15:36;9.80;99.90
43949;DHT22;29429;51.074;13.764;2023-05-07T19:18:03;9.80;99.90
43949;DHT22;29429;51.074;13.764;2023-05-07T19:20:31;9.70;99.90
43949;DHT22;29429;51.074;13.764;2023-05-07T19:22:58;9.70;99.90
43949;DHT22;29429;51.074;13.764;2023-05-07T19:25:26;9.60;99.90
